Northolt, United Kingdom

5:48 PM GMT on February 10, 2016 (GMT +0000)
Ruislip Manor | | Change Station
CLOSE
Current Station
Personal Weather Station
Location: United Kingdom,
Elevation: 131 ft
Nearby Weather Stations

Elev 131 ft 51.57 °N, 0.41 °W | Updated 52 seconds ago

Partly Cloudy
Partly Cloudy
42.1 °F
Feels Like 42 °F
N
1.6
Wind Variable Wind from NNW
Gusts 2.2 mph

Today
High -- | Low -- °F
--% Chance of Precip.
Yesterday
High -- | Low -- °F
Precip. -- in
Pressure 29.53 in
Visibility 6.2 miles
Clouds Few 2900 ft
Windchill 42 °F
Dew Point 31 °F
Humidity 64%
Rainfall 0.00 in
Snow Depth Not available.
7:26 AM 5:06 PM
Waxing Crescent, 6% visible
METAR EGLL 101720Z AUTO 30006KT 9999 FEW029 07/01 Q1000 NOSIG
Pressure 29.53 in
Visibility 6.2 miles
Clouds Few 2900 ft
Windchill 42 °F
Dew Point 31 °F
Humidity 64%
Rainfall 0.00 in
Snow Depth Not available.
7:26 AM 5:06 PM
Waxing Crescent, 6% visible
METAR EGLL 101720Z AUTO 30006KT 9999 FEW029 07/01 Q1000 NOSIG

10-Day Weather Forecast

Almanac

Astronomy

Feb. 10, 2016 Rise Set
Actual Time
Civil Twilight
Nautical Twilight
Astronomical Twilight
Moon
Length of Visible Light
Length of Day
Tomorrow will be .
, % of the Moon is Illuminated

Today's Extremes

Country Highs Country Lows

Community

WunderPhotos

Upload Photos

1,891,899 photos uploaded!

WunderBlog® & News

Nearby

Air Quality

  Air Quality AQ Index Pollutant
Not available.

Snow Depth

Station Depth Elevation

Earthquake Activity

City Distance Mag. Time & Date
Minimum magnitude displayed is 2.5.

Coastal Water Temperatures

Place Temperature

Stations

Nearby Weather Stations

Station Location Temp. Windchill Dew Point Humidity Wind Precip. Elev Updated Type